LVJ weather

Pearland Regional Airport
Houston, Texas, United States

Public forecast

Using degrees Fahrenheit for public forecast. Weather courtesy of forecast.io.

METAR (pilot weather report)

Retrieved 2019/09/17 16:53 UTC (1 hour ago):

KLVJ 171653Z AUTO 08008KT 10SM -RA FEW012 BKN018 OVC048 26/24 A2992 RMK AO2 SLP131 P0000 T02560239 $

TAF (pilot weather forecast)

Closest forecast is Ellington Airport, 6.8 nm (12.5 km) NE. Retrieved 2019/09/17 12:16 UTC (6 hours ago):

TAF KEFD 171200Z 1712/1818 07006KT 6000 SHRA VCTS BKN020CB QNH2984INS TEMPO 1712/1716 11012G20KT 4800 -TSRA BKN020CB BECMG 1716/1717 16006KT 6000 SHRA VCTS BKN010CB QNH2983INS TEMPO 1717/1723 6000 -TSRA BKN010CB TEMPO 1808/1813 12012G18KT 4800 -TSRA BKN010CB TX30/1721Z TN24/1712Z